createdAt,value
2017-05-29T00:00:05.424Z,25.47
2017-05-29T00:00:46.214Z,25.62
2017-05-29T00:01:26.959Z,25.58
2017-05-29T00:02:07.731Z,25.57
2017-05-29T00:02:48.504Z,25.54
2017-05-29T00:03:29.254Z,25.58
2017-05-29T00:04:10.056Z,25.55
2017-05-29T00:04:50.903Z,25.6
2017-05-29T00:05:31.629Z,25.58
2017-05-29T00:06:12.417Z,25.6
2017-05-29T00:06:53.213Z,25.57
2017-05-29T00:07:33.984Z,25.57
2017-05-29T00:08:14.776Z,25.64
2017-05-29T00:08:55.545Z,25.6
2017-05-29T00:09:36.334Z,25.64
2017-05-29T00:10:17.128Z,25.58
2017-05-29T00:10:58.604Z,25.55
2017-05-29T00:11:39.326Z,25.61
2017-05-29T00:12:20.091Z,25.54
2017-05-29T00:13:00.859Z,25.6
2017-05-29T00:13:41.611Z,25.6
2017-05-29T00:14:22.396Z,25.58
2017-05-29T00:15:03.265Z,25.58
2017-05-29T00:15:44.045Z,25.57
2017-05-29T00:16:24.796Z,25.58
2017-05-29T00:17:05.559Z,25.54
2017-05-29T00:17:46.326Z,25.6
2017-05-29T00:18:27.212Z,25.5
2017-05-29T00:19:07.972Z,25.52
2017-05-29T00:19:48.794Z,25.51
2017-05-29T00:20:29.542Z,25.57
2017-05-29T00:21:10.332Z,25.6
2017-05-29T00:21:51.086Z,25.54
2017-05-29T00:22:31.765Z,25.55
2017-05-29T00:23:12.468Z,25.65
2017-05-29T00:23:53.266Z,25.61
2017-05-29T00:24:34.051Z,25.57
2017-05-29T00:25:14.828Z,25.58
2017-05-29T00:25:55.552Z,25.58
2017-05-29T00:26:36.353Z,25.6
2017-05-29T00:27:17.110Z,25.6
2017-05-29T00:27:57.854Z,25.58
2017-05-29T00:28:38.632Z,25.55
2017-05-29T00:29:19.420Z,25.62
2017-05-29T00:30:00.216Z,25.55
2017-05-29T00:30:40.980Z,25.6
2017-05-29T00:31:21.842Z,25.54
2017-05-29T00:32:02.600Z,25.54
2017-05-29T00:32:43.385Z,25.58
2017-05-29T00:33:24.113Z,25.58
2017-05-29T00:34:04.814Z,25.58
2017-05-29T00:34:45.578Z,25.54
2017-05-29T00:35:26.364Z,25.61
2017-05-29T00:36:07.087Z,25.57
2017-05-29T00:36:47.861Z,25.61
2017-05-29T00:37:28.586Z,25.58
2017-05-29T00:38:09.301Z,25.61
2017-05-29T00:38:50.058Z,25.69
2017-05-29T00:39:30.914Z,25.57
2017-05-29T00:40:11.658Z,25.67
2017-05-29T00:40:52.401Z,25.57
2017-05-29T00:41:33.158Z,25.58
2017-05-29T00:42:13.959Z,25.55
2017-05-29T00:42:54.764Z,25.61
2017-05-29T00:43:35.542Z,25.55
2017-05-29T00:44:16.312Z,25.61
2017-05-29T00:44:57.103Z,25.57
2017-05-29T00:45:37.952Z,25.52
2017-05-29T00:46:18.721Z,25.58
2017-05-29T00:46:59.595Z,25.55
2017-05-29T00:47:40.392Z,25.57
2017-05-29T00:48:21.101Z,25.58
2017-05-29T00:49:01.811Z,25.61
2017-05-29T00:49:42.625Z,25.6
2017-05-29T00:50:23.390Z,25.67
2017-05-29T00:51:04.089Z,25.62
2017-05-29T00:51:44.945Z,25.61
2017-05-29T00:52:25.778Z,25.61
2017-05-29T00:53:06.546Z,25.57
2017-05-29T00:53:47.315Z,25.6
2017-05-29T00:54:28.051Z,25.46
2017-05-29T00:55:08.888Z,25.43
2017-05-29T00:55:49.657Z,25.36
2017-05-29T00:56:30.438Z,25.43
2017-05-29T00:57:11.260Z,25.4
2017-05-29T00:57:52.075Z,25.35
2017-05-29T00:59:31.799Z,25.39
2017-05-29T01:00:12.522Z,25.35
2017-05-29T01:00:53.291Z,25.47
2017-05-29T01:01:34.126Z,25.33
2017-05-29T01:02:14.874Z,25.43
2017-05-29T01:02:55.678Z,25.33
2017-05-29T01:03:36.405Z,25.33
2017-05-29T01:04:17.175Z,25.32
2017-05-29T01:04:57.912Z,25.25
2017-05-29T01:05:38.697Z,25.21
2017-05-29T01:06:19.644Z,25.2
2017-05-29T01:07:00.398Z,25.27
2017-05-29T01:07:41.126Z,25.27
2017-05-29T01:08:21.903Z,25.21
2017-05-29T01:09:02.766Z,25.24
2017-05-29T01:09:43.576Z,25.14
2017-05-29T01:10:24.305Z,25.21
2017-05-29T01:11:05.121Z,25.24
2017-05-29T01:11:45.912Z,25.23
2017-05-29T01:12:26.617Z,25.18
2017-05-29T01:13:07.388Z,25.18
2017-05-29T01:13:48.112Z,25.21
2017-05-29T01:14:28.949Z,25.3
2017-05-29T01:15:09.757Z,25.17
2017-05-29T01:15:50.569Z,25.24
2017-05-29T01:16:31.342Z,25.32
2017-05-29T01:17:12.139Z,25.24
2017-05-29T01:17:52.957Z,25.23
2017-05-29T01:18:33.741Z,25.18
2017-05-29T01:19:14.485Z,25.3
2017-05-29T01:19:55.255Z,25.27
2017-05-29T01:20:36.023Z,25.3
2017-05-29T01:21:16.852Z,25.3
2017-05-29T01:21:57.629Z,25.33
2017-05-29T01:22:38.376Z,25.38
2017-05-29T01:23:19.124Z,25.27
2017-05-29T01:23:59.913Z,25.23
2017-05-29T01:24:40.778Z,25.2
2017-05-29T01:25:21.530Z,25.18
2017-05-29T01:26:02.277Z,25.17
2017-05-29T01:26:43.033Z,25.38
2017-05-29T01:27:23.785Z,25.25
2017-05-29T01:28:04.569Z,25.24
2017-05-29T01:28:45.341Z,25.36
2017-05-29T01:29:26.147Z,25.32
2017-05-29T01:30:06.935Z,25.35
2017-05-29T01:30:47.731Z,25.36
2017-05-29T01:31:28.474Z,25.35
2017-05-29T01:32:09.278Z,25.4
2017-05-29T01:32:50.112Z,25.36
2017-05-29T01:33:30.902Z,25.42
2017-05-29T01:34:11.703Z,25.36
2017-05-29T01:34:52.506Z,25.36
2017-05-29T01:35:33.225Z,25.42
2017-05-29T01:36:13.984Z,25.35
2017-05-29T01:36:54.715Z,25.38
2017-05-29T01:37:35.443Z,25.32
2017-05-29T01:38:16.280Z,25.36
2017-05-29T01:38:56.958Z,25.33
2017-05-29T01:39:37.791Z,25.42
2017-05-29T01:40:18.540Z,25.4
2017-05-29T01:40:59.338Z,25.36
2017-05-29T01:41:40.072Z,25.32
2017-05-29T01:42:20.819Z,25.35
2017-05-29T01:43:01.602Z,25.39
2017-05-29T01:43:42.342Z,25.45
2017-05-29T01:44:23.133Z,25.4
2017-05-29T01:45:03.922Z,25.39
2017-05-29T01:45:44.642Z,25.36
2017-05-29T01:46:25.466Z,25.35
2017-05-29T01:47:06.190Z,25.35
2017-05-29T01:47:46.970Z,25.33
2017-05-29T01:48:27.815Z,25.39
2017-05-29T01:49:08.708Z,25.33
2017-05-29T01:49:49.473Z,25.33
2017-05-29T01:50:30.188Z,25.42
2017-05-29T01:51:10.935Z,25.47
2017-05-29T01:51:51.671Z,25.46
2017-05-29T01:52:32.458Z,25.43
2017-05-29T01:53:13.177Z,25.4
2017-05-29T01:53:53.947Z,25.36
2017-05-29T01:54:34.780Z,25.46
2017-05-29T01:55:15.495Z,25.43
2017-05-29T01:55:56.251Z,25.42
2017-05-29T01:56:37.018Z,25.33
2017-05-29T01:57:17.754Z,25.5
2017-05-29T01:57:58.537Z,25.43
2017-05-29T01:58:39.253Z,25.42
2017-05-29T01:59:20.092Z,25.42
2017-05-29T02:00:00.807Z,25.35
2017-05-29T02:00:41.598Z,25.43
2017-05-29T02:01:22.406Z,25.47
2017-05-29T02:02:03.214Z,25.45
2017-05-29T02:02:43.976Z,25.43
2017-05-29T02:03:24.826Z,25.46
2017-05-29T02:04:05.641Z,25.4
2017-05-29T02:04:46.357Z,25.43
2017-05-29T02:05:27.103Z,25.45
2017-05-29T02:06:07.849Z,25.47
2017-05-29T02:06:48.675Z,25.45
2017-05-29T02:07:29.470Z,25.4
2017-05-29T02:08:10.241Z,25.4
2017-05-29T02:08:51.101Z,25.43
2017-05-29T02:09:31.907Z,25.45
2017-05-29T02:10:12.668Z,25.4
2017-05-29T02:10:53.469Z,25.5
2017-05-29T02:11:34.208Z,25.54
2017-05-29T02:12:15.000Z,25.45
2017-05-29T02:12:55.740Z,25.52
2017-05-29T02:13:36.526Z,25.5
2017-05-29T02:14:17.278Z,25.43
2017-05-29T02:14:58.024Z,25.45
2017-05-29T02:15:38.817Z,25.43
2017-05-29T02:16:19.685Z,25.46
2017-05-29T02:17:00.408Z,25.47
2017-05-29T02:17:41.114Z,25.45
2017-05-29T02:18:21.887Z,25.4
2017-05-29T02:19:02.691Z,25.45
2017-05-29T02:19:43.446Z,25.4
2017-05-29T02:20:24.269Z,25.43
2017-05-29T02:21:05.027Z,25.46
2017-05-29T02:21:45.832Z,25.45
2017-05-29T02:22:26.614Z,25.46
2017-05-29T02:23:07.342Z,25.45
2017-05-29T02:23:48.048Z,25.32
2017-05-29T02:24:28.878Z,25.43
2017-05-29T02:25:09.620Z,25.36
2017-05-29T02:25:50.304Z,25.38
2017-05-29T02:26:31.144Z,25.4
2017-05-29T02:27:11.930Z,25.33
2017-05-29T02:27:52.712Z,25.39
2017-05-29T02:28:33.478Z,25.43
2017-05-29T02:29:14.175Z,25.46
2017-05-29T02:29:54.999Z,25.43
2017-05-29T02:30:35.733Z,25.45
2017-05-29T02:31:16.508Z,25.45
2017-05-29T02:31:57.233Z,25.43
2017-05-29T02:32:38.036Z,25.35
2017-05-29T02:33:18.820Z,25.45
2017-05-29T02:33:59.523Z,25.35
2017-05-29T02:34:40.273Z,25.35
2017-05-29T02:35:21.129Z,25.42
2017-05-29T02:36:01.809Z,25.5
2017-05-29T02:36:42.534Z,25.36
2017-05-29T02:37:23.246Z,25.35
2017-05-29T02:38:03.989Z,25.46
2017-05-29T02:38:44.785Z,25.43
2017-05-29T02:39:25.633Z,25.47
2017-05-29T02:40:06.373Z,25.35
2017-05-29T02:40:47.092Z,25.35
2017-05-29T02:41:27.814Z,25.47
2017-05-29T02:42:08.712Z,25.45
2017-05-29T02:42:49.507Z,25.32
2017-05-29T02:43:30.294Z,25.47
2017-05-29T02:44:11.086Z,25.5
2017-05-29T02:44:51.847Z,25.46
2017-05-29T02:45:32.720Z,25.47
2017-05-29T02:46:13.410Z,25.42
2017-05-29T02:46:54.189Z,25.42
2017-05-29T02:47:34.988Z,25.43
2017-05-29T02:48:15.732Z,25.45
2017-05-29T02:48:56.507Z,25.47
2017-05-29T02:49:37.259Z,25.43
2017-05-29T02:50:18.081Z,25.47
2017-05-29T02:50:58.806Z,25.47
2017-05-29T02:51:39.527Z,25.42
2017-05-29T02:52:20.251Z,25.47
2017-05-29T02:53:01.002Z,25.46
2017-05-29T02:53:41.725Z,25.5
2017-05-29T02:54:22.504Z,25.46
2017-05-29T02:55:03.224Z,25.46
2017-05-29T02:55:44.025Z,25.47
2017-05-29T02:56:24.743Z,25.46
2017-05-29T02:57:05.553Z,25.42
2017-05-29T02:57:46.275Z,25.42
2017-05-29T02:58:27.112Z,25.46
2017-05-29T02:59:07.825Z,25.36
2017-05-29T02:59:48.610Z,25.35
2017-05-29T03:00:29.414Z,25.35
2017-05-29T03:01:10.226Z,25.36
2017-05-29T03:01:50.994Z,25.33
2017-05-29T03:02:31.803Z,25.46
2017-05-29T03:03:12.615Z,25.4
2017-05-29T03:03:53.360Z,25.47
2017-05-29T03:04:34.083Z,25.47
2017-05-29T03:05:14.805Z,25.38
2017-05-29T03:05:55.507Z,25.45
2017-05-29T03:06:36.345Z,25.4
2017-05-29T03:07:17.111Z,25.4
2017-05-29T03:07:57.887Z,25.38
2017-05-29T03:08:38.593Z,25.35
2017-05-29T03:09:19.322Z,25.36
2017-05-29T03:10:00.203Z,25.28
2017-05-29T03:10:40.996Z,25.38
2017-05-29T03:11:21.739Z,25.35
2017-05-29T03:12:02.525Z,25.39
2017-05-29T03:12:43.261Z,25.38
2017-05-29T03:13:24.040Z,25.35
2017-05-29T03:14:04.746Z,25.39
2017-05-29T03:14:45.527Z,25.35
2017-05-29T03:15:26.310Z,25.32
2017-05-29T03:16:07.085Z,25.42
2017-05-29T03:16:47.832Z,25.4
2017-05-29T03:17:28.617Z,25.36
2017-05-29T03:18:09.392Z,25.42
2017-05-29T03:18:50.112Z,25.38
2017-05-29T03:19:30.886Z,25.38
2017-05-29T03:20:11.582Z,25.32
2017-05-29T03:20:52.383Z,25.23
2017-05-29T03:21:33.153Z,25.28
2017-05-29T03:22:13.870Z,25.35
2017-05-29T03:22:54.653Z,25.38
2017-05-29T03:23:35.479Z,25.25
2017-05-29T03:24:16.162Z,25.25
2017-05-29T03:24:56.934Z,25.36
2017-05-29T03:25:37.787Z,25.35
2017-05-29T03:26:18.486Z,25.3
2017-05-29T03:26:59.233Z,25.38
2017-05-29T03:27:39.979Z,25.4
2017-05-29T03:28:20.770Z,25.24
2017-05-29T03:29:01.537Z,25.38
2017-05-29T03:29:42.299Z,25.23
2017-05-29T03:30:22.990Z,25.25
2017-05-29T03:31:03.747Z,25.2
2017-05-29T03:31:44.627Z,25.21
2017-05-29T03:32:25.435Z,25.3
2017-05-29T03:33:06.159Z,25.35
2017-05-29T03:33:46.948Z,25.33
2017-05-29T03:34:27.617Z,25.39
2017-05-29T03:35:08.380Z,25.35
2017-05-29T03:35:49.159Z,25.24
2017-05-29T03:36:29.922Z,25.21
2017-05-29T03:37:10.642Z,25.21
2017-05-29T03:37:51.408Z,25.28
2017-05-29T03:38:32.172Z,25.28
2017-05-29T03:39:12.921Z,25.33
2017-05-29T03:39:53.726Z,25.25
2017-05-29T03:40:34.532Z,25.43
2017-05-29T03:41:15.329Z,25.3
2017-05-29T03:41:56.048Z,25.36
2017-05-29T03:42:36.753Z,25.4
2017-05-29T03:43:17.545Z,25.35
2017-05-29T03:43:58.276Z,25.24
2017-05-29T03:44:39.004Z,25.32
2017-05-29T03:45:19.749Z,25.2
2017-05-29T03:46:00.488Z,25.2
2017-05-29T03:46:41.262Z,25.25
2017-05-29T03:47:22.072Z,25.3
2017-05-29T03:48:02.835Z,25.21
2017-05-29T03:48:43.663Z,25.21
2017-05-29T03:49:24.410Z,25.17
2017-05-29T03:50:05.193Z,25.23
2017-05-29T03:50:45.977Z,25.17
2017-05-29T03:51:26.734Z,25.2
2017-05-29T03:52:07.431Z,25.27
2017-05-29T03:52:48.215Z,25.24
2017-05-29T03:53:29.010Z,25.25
2017-05-29T03:54:09.832Z,25.18
2017-05-29T03:54:50.587Z,25.21
2017-05-29T03:55:31.374Z,25.17
2017-05-29T03:56:12.081Z,25.27
2017-05-29T03:56:52.893Z,25.3
2017-05-29T03:57:33.597Z,25.27
2017-05-29T03:58:14.347Z,25.2
2017-05-29T03:58:55.087Z,25.23
2017-05-29T03:59:35.854Z,25.21
2017-05-29T04:00:16.657Z,25.3
2017-05-29T04:00:57.441Z,25.23
2017-05-29T04:01:38.228Z,25.3
2017-05-29T04:02:19.124Z,25.27
2017-05-29T04:02:59.919Z,25.24
2017-05-29T04:03:40.691Z,25.3
2017-05-29T04:04:21.522Z,25.24
2017-05-29T04:05:02.278Z,25.27
2017-05-29T04:05:43.073Z,25.18
2017-05-29T04:06:23.872Z,25.21
2017-05-29T04:07:04.610Z,25.32
2017-05-29T04:07:45.382Z,25.25
2017-05-29T04:08:26.151Z,25.3
2017-05-29T04:09:07.011Z,25.23
2017-05-29T04:09:47.764Z,25.27
2017-05-29T04:10:29.378Z,25.25
2017-05-29T04:11:10.111Z,25.24
2017-05-29T04:11:50.880Z,25.27
2017-05-29T04:12:31.613Z,25.21
2017-05-29T04:13:12.402Z,25.27
2017-05-29T04:13:53.090Z,25.28
2017-05-29T04:14:33.898Z,25.25
2017-05-29T04:15:14.633Z,25.21
2017-05-29T04:15:55.468Z,25.24
2017-05-29T04:16:36.238Z,25.27
2017-05-29T04:17:17.027Z,25.24
2017-05-29T04:17:57.907Z,25.2
2017-05-29T04:18:38.696Z,25.2
2017-05-29T04:19:19.412Z,25.21
2017-05-29T04:20:00.171Z,25.23
2017-05-29T04:20:40.972Z,25.24
2017-05-29T04:21:21.723Z,25.24
2017-05-29T04:22:02.463Z,25.15
2017-05-29T04:22:43.307Z,25.27
2017-05-29T04:23:24.036Z,25.21
2017-05-29T04:24:04.816Z,25.28
2017-05-29T04:24:45.611Z,25.32
2017-05-29T04:25:26.340Z,25.27
2017-05-29T04:26:07.097Z,25.35
2017-05-29T04:26:47.826Z,25.24
2017-05-29T04:27:28.608Z,25.25
2017-05-29T04:28:09.433Z,25.18
2017-05-29T04:28:50.183Z,25.14
2017-05-29T04:29:30.925Z,25.2
2017-05-29T04:30:11.655Z,25.23
2017-05-29T04:30:52.470Z,25.3
2017-05-29T04:31:33.270Z,25.23
2017-05-29T04:32:13.964Z,25.2
2017-05-29T04:32:54.768Z,25.23
2017-05-29T04:33:35.581Z,25.27
2017-05-29T04:34:16.358Z,25.27
2017-05-29T04:34:57.122Z,25.2
2017-05-29T04:35:37.883Z,25.27
2017-05-29T04:36:18.705Z,25.32
2017-05-29T04:36:59.481Z,25.23
2017-05-29T04:37:40.183Z,25.24
2017-05-29T04:38:21.015Z,25.27
2017-05-29T04:39:01.784Z,25.2
2017-05-29T04:39:42.591Z,25.23
2017-05-29T04:40:23.323Z,25.25
2017-05-29T04:41:04.094Z,25.27
2017-05-29T04:41:44.941Z,25.23
2017-05-29T04:42:25.683Z,25.15
2017-05-29T04:43:06.434Z,25.18
2017-05-29T04:43:47.182Z,25.17
2017-05-29T04:44:27.929Z,25.17
2017-05-29T04:45:08.736Z,25.2
2017-05-29T04:45:49.471Z,25.17
2017-05-29T04:46:30.228Z,25.2
2017-05-29T04:47:11.072Z,25.1
2017-05-29T04:47:51.817Z,25.15
2017-05-29T04:48:32.608Z,25.08
2017-05-29T04:49:13.358Z,25.05
2017-05-29T04:49:54.101Z,25.08
2017-05-29T04:50:34.919Z,25.08
2017-05-29T04:51:15.752Z,25.08
2017-05-29T04:51:56.504Z,25.09
2017-05-29T04:52:37.256Z,25.09
2017-05-29T04:53:18.013Z,25.1
2017-05-29T04:53:58.766Z,25.13
2017-05-29T04:54:39.626Z,25.03
2017-05-29T04:55:20.376Z,25.05
2017-05-29T04:56:01.158Z,25.08
2017-05-29T04:56:41.888Z,25.09
2017-05-29T04:57:22.655Z,25.14
2017-05-29T04:58:03.471Z,25.13
2017-05-29T04:58:44.305Z,25.14
2017-05-29T04:59:25.004Z,25.15
2017-05-29T05:00:05.814Z,25.17
2017-05-29T05:00:46.544Z,25.13
2017-05-29T05:01:27.288Z,25.17
2017-05-29T05:02:08.071Z,25.2
2017-05-29T05:02:48.811Z,25.14
2017-05-29T05:03:29.580Z,25.13
2017-05-29T05:04:10.372Z,25.15
2017-05-29T05:04:51.193Z,25.15
2017-05-29T05:05:32.046Z,25.13
2017-05-29T05:06:12.865Z,25.18
2017-05-29T05:06:53.565Z,25.15
2017-05-29T05:07:34.326Z,25.18
2017-05-29T05:08:15.042Z,25.21
2017-05-29T05:08:55.809Z,25.24
2017-05-29T05:09:36.658Z,25.2
2017-05-29T05:10:17.392Z,25.27
2017-05-29T05:10:58.154Z,25.25
2017-05-29T05:11:38.965Z,25.24
2017-05-29T05:12:19.740Z,25.2
2017-05-29T05:13:00.548Z,25.21
2017-05-29T05:13:41.343Z,25.24
2017-05-29T05:14:22.089Z,25.2
2017-05-29T05:15:02.798Z,25.18
2017-05-29T05:15:43.581Z,25.17
2017-05-29T05:16:24.289Z,25.21
2017-05-29T05:17:05.203Z,25.18
2017-05-29T05:17:46.009Z,25.24
2017-05-29T05:18:26.787Z,25.18
2017-05-29T05:19:07.572Z,25.15
2017-05-29T05:19:48.407Z,25.23
2017-05-29T05:20:29.163Z,25.27
2017-05-29T05:21:09.910Z,25.17
2017-05-29T05:21:50.767Z,25.21
2017-05-29T05:22:31.585Z,25.25
2017-05-29T05:23:12.384Z,25.18
2017-05-29T05:23:53.200Z,25.21
2017-05-29T05:24:33.960Z,25.21
2017-05-29T05:25:14.735Z,25.2
2017-05-29T05:25:55.606Z,25.2
2017-05-29T05:26:36.424Z,25.21
2017-05-29T05:27:17.219Z,25.24
2017-05-29T05:27:57.949Z,25.18
2017-05-29T05:30:13.544Z,25.3
2017-05-29T05:30:54.286Z,25.23
2017-05-29T05:31:35.100Z,25.3
2017-05-29T05:32:15.876Z,25.2
2017-05-29T05:32:56.689Z,25.23
2017-05-29T05:33:37.461Z,25.33
2017-05-29T05:34:18.173Z,25.21
2017-05-29T05:34:58.884Z,25.21
2017-05-29T05:35:39.680Z,25.24
2017-05-29T05:36:20.363Z,25.24
2017-05-29T05:37:01.267Z,25.32
2017-05-29T05:37:41.998Z,25.25
2017-05-29T05:38:22.757Z,25.18
2017-05-29T05:39:03.632Z,25.18
2017-05-29T05:39:44.342Z,25.13
2017-05-29T05:40:25.238Z,25.08
2017-05-29T05:41:05.999Z,25.03
2017-05-29T05:41:46.856Z,25.09
2017-05-29T05:42:27.614Z,25.1
2017-05-29T05:43:08.382Z,25.23
2017-05-29T05:43:49.158Z,25.17
2017-05-29T05:44:29.894Z,25.17
2017-05-29T05:45:10.630Z,25.21
2017-05-29T05:45:51.459Z,25.1
2017-05-29T05:46:32.260Z,25.15
2017-05-29T05:47:12.997Z,25.17
2017-05-29T05:47:53.761Z,25.09
2017-05-29T05:48:34.500Z,25.06
2017-05-29T05:49:15.394Z,25.09
2017-05-29T05:49:56.093Z,25.06
2017-05-29T05:50:36.852Z,25.09
2017-05-29T05:51:17.589Z,25.18
2017-05-29T05:51:58.327Z,25.18
2017-05-29T05:52:39.072Z,25.18
2017-05-29T05:53:19.928Z,25.15
2017-05-29T05:54:00.651Z,25.28
2017-05-29T05:54:41.439Z,25.27
2017-05-29T05:55:22.134Z,25.17
2017-05-29T05:56:02.925Z,25.25
2017-05-29T05:56:43.749Z,25.24
2017-05-29T05:57:24.550Z,25.32
2017-05-29T05:58:05.328Z,25.24
2017-05-29T05:58:46.055Z,25.32
2017-05-29T05:59:41.473Z,25.24
2017-05-29T06:00:22.352Z,25.27
2017-05-29T06:01:03.137Z,25.23
2017-05-29T06:01:43.903Z,25.24
2017-05-29T06:02:24.578Z,25.27
2017-05-29T06:03:05.342Z,25.36
2017-05-29T06:03:46.113Z,25.38
2017-05-29T06:04:26.872Z,25.33
2017-05-29T06:05:07.649Z,25.39
2017-05-29T06:05:48.375Z,25.33
2017-05-29T06:06:29.158Z,25.33
2017-05-29T06:07:09.980Z,25.28
2017-05-29T06:07:50.753Z,25.38
2017-05-29T06:08:31.612Z,25.33
2017-05-29T06:09:12.368Z,25.35
2017-05-29T06:09:53.090Z,25.33
2017-05-29T06:10:33.933Z,25.33
2017-05-29T06:11:14.656Z,25.33
2017-05-29T06:11:55.754Z,25.36
2017-05-29T06:12:36.509Z,25.43
2017-05-29T06:13:17.252Z,25.5
2017-05-29T06:13:58.012Z,25.45
2017-05-29T06:14:38.789Z,25.43
2017-05-29T06:15:19.553Z,25.52
2017-05-29T06:16:00.337Z,25.43
2017-05-29T06:16:41.078Z,25.45
2017-05-29T06:17:21.819Z,25.51
2017-05-29T06:18:02.607Z,25.5
2017-05-29T06:18:43.400Z,25.43
2017-05-29T06:19:24.201Z,25.54
2017-05-29T06:20:05.006Z,25.55
2017-05-29T06:20:45.762Z,25.47
2017-05-29T06:21:26.586Z,25.51
2017-05-29T06:22:07.397Z,25.45
2017-05-29T06:22:48.212Z,25.47
2017-05-29T06:23:28.986Z,25.5
2017-05-29T06:24:09.775Z,25.55
2017-05-29T06:24:50.506Z,25.51
2017-05-29T06:25:31.271Z,25.51
2017-05-29T06:26:12.029Z,25.51
2017-05-29T06:26:53.070Z,25.46
2017-05-29T06:27:34.247Z,25.58
2017-05-29T06:28:15.078Z,25.67
2017-05-29T06:28:56.965Z,25.65
2017-05-29T06:29:52.445Z,25.7
2017-05-29T06:30:33.494Z,25.64
2017-05-29T06:31:14.147Z,25.69
2017-05-29T06:31:54.891Z,25.8
2017-05-29T06:32:35.694Z,25.8
2017-05-29T06:33:16.445Z,25.77
2017-05-29T06:33:57.171Z,25.76
2017-05-29T06:34:37.962Z,25.88
2017-05-29T06:35:18.799Z,25.88
2017-05-29T06:35:59.687Z,25.91
2017-05-29T06:36:40.408Z,25.95
2017-05-29T06:37:21.224Z,26.06
2017-05-29T06:38:02.038Z,26.07
2017-05-29T06:38:42.889Z,26.07
2017-05-29T06:39:23.572Z,26.15
2017-05-29T06:40:04.331Z,26.23
2017-05-29T06:40:45.136Z,26.33
2017-05-29T06:41:26.000Z,26.35
2017-05-29T06:42:06.769Z,26.43
2017-05-29T06:42:47.590Z,26.47
2017-05-29T06:43:28.386Z,26.48
2017-05-29T06:44:09.230Z,26.48
2017-05-29T06:44:50.022Z,26.45
2017-05-29T06:45:30.684Z,26.39
2017-05-29T06:46:11.619Z,26.48
2017-05-29T06:46:52.435Z,26.48
2017-05-29T06:47:33.280Z,26.5
2017-05-29T06:48:14.114Z,26.4
2017-05-29T06:48:54.882Z,26.47
2017-05-29T06:49:35.705Z,26.4
2017-05-29T06:50:16.464Z,26.43
2017-05-29T06:50:57.350Z,26.43
2017-05-29T06:51:38.170Z,26.47
2017-05-29T06:52:19.358Z,26.35
2017-05-29T06:53:00.121Z,26.44
2017-05-29T06:53:40.895Z,26.33
2017-05-29T06:54:21.711Z,26.32
2017-05-29T06:55:02.478Z,26.36
2017-05-29T06:55:43.270Z,26.35
2017-05-29T06:56:24.065Z,26.33
2017-05-29T06:57:04.890Z,26.43
2017-05-29T06:57:48.756Z,26.35
2017-05-29T06:58:29.536Z,26.43
2017-05-29T06:59:10.261Z,26.43
2017-05-29T06:59:51.096Z,26.45
2017-05-29T07:00:31.842Z,26.45
2017-05-29T07:01:12.601Z,26.33
2017-05-29T07:01:53.398Z,26.36
2017-05-29T07:02:34.162Z,26.36
2017-05-29T07:03:14.976Z,26.39
2017-05-29T07:03:55.735Z,26.32
2017-05-29T07:04:36.442Z,26.39
2017-05-29T07:05:17.179Z,26.39
2017-05-29T07:05:58.023Z,26.3
2017-05-29T07:06:38.782Z,26.29
2017-05-29T07:07:19.593Z,26.23
2017-05-29T07:08:00.399Z,26.26
2017-05-29T07:08:41.104Z,26.3
2017-05-29T07:09:21.887Z,26.3
2017-05-29T07:10:02.680Z,26.21
2017-05-29T07:10:43.428Z,26.33
2017-05-29T07:11:24.216Z,26.26
2017-05-29T07:12:04.947Z,26.32
2017-05-29T07:12:45.819Z,26.35
2017-05-29T07:13:26.562Z,26.29
2017-05-29T07:14:07.293Z,26.29
2017-05-29T07:14:48.201Z,26.33
2017-05-29T07:15:29.026Z,26.26
2017-05-29T07:16:09.800Z,26.18
2017-05-29T07:16:50.640Z,26.21
2017-05-29T07:17:31.521Z,26.3
2017-05-29T07:18:12.284Z,26.29
2017-05-29T07:18:53.124Z,26.25
2017-05-29T07:19:33.852Z,26.09
2017-05-29T07:20:14.580Z,25.98
2017-05-29T07:20:55.406Z,25.87
2017-05-29T07:21:36.119Z,25.52
2017-05-29T07:22:16.958Z,25.47
2017-05-29T07:22:57.796Z,25.45
2017-05-29T07:23:38.961Z,25.43
2017-05-29T07:24:19.984Z,25.38
2017-05-29T07:25:01.005Z,25.45
2017-05-29T07:25:41.798Z,25.5
2017-05-29T07:26:22.604Z,25.54
2017-05-29T07:27:03.400Z,25.61
2017-05-29T07:27:44.165Z,25.6
2017-05-29T07:28:24.955Z,25.62
2017-05-29T07:29:05.751Z,25.7
2017-05-29T07:29:46.486Z,25.72
2017-05-29T07:30:27.250Z,25.77
2017-05-29T07:31:08.105Z,25.8
2017-05-29T07:31:48.936Z,25.77
2017-05-29T07:32:29.744Z,25.73
2017-05-29T07:33:10.541Z,25.87
2017-05-29T07:33:51.260Z,25.85
2017-05-29T07:34:32.047Z,25.79
2017-05-29T07:35:12.839Z,25.85
2017-05-29T07:35:54.582Z,25.79
2017-05-29T07:36:35.342Z,25.61
2017-05-29T07:37:16.144Z,25.52
2017-05-29T07:37:56.931Z,25.51
2017-05-29T07:38:37.710Z,25.47
2017-05-29T07:39:18.497Z,25.6
2017-05-29T07:39:59.248Z,25.77
2017-05-29T07:40:39.989Z,25.85
2017-05-29T07:41:20.748Z,25.91
2017-05-29T07:42:01.476Z,25.87
2017-05-29T07:42:42.216Z,25.88
2017-05-29T07:43:22.942Z,25.77
2017-05-29T07:44:03.757Z,25.69
2017-05-29T07:44:44.649Z,25.57
2017-05-29T07:45:25.428Z,25.55
2017-05-29T07:46:06.171Z,25.57
2017-05-29T07:46:46.943Z,25.55
2017-05-29T07:47:27.725Z,25.6
2017-05-29T07:48:08.558Z,25.47
2017-05-29T07:48:49.285Z,25.52
2017-05-29T07:49:30.025Z,25.57
2017-05-29T07:50:10.776Z,25.47
2017-05-29T07:50:51.632Z,25.51
2017-05-29T07:51:32.424Z,25.51
2017-05-29T07:52:13.165Z,25.4
2017-05-29T07:52:53.967Z,25.38
2017-05-29T07:53:34.709Z,25.46
2017-05-29T07:54:15.508Z,25.4
2017-05-29T07:54:56.258Z,25.51
2017-05-29T07:55:37.031Z,25.52
2017-05-29T07:56:17.840Z,25.46
2017-05-29T07:56:58.598Z,25.42
2017-05-29T07:57:39.353Z,25.4
2017-05-29T07:58:20.166Z,25.35
2017-05-29T07:59:00.868Z,25.42
2017-05-29T07:59:41.654Z,25.5
2017-05-29T08:00:22.464Z,25.55
2017-05-29T08:01:03.238Z,25.62
2017-05-29T08:01:44.005Z,25.65
2017-05-29T08:02:24.789Z,25.69
2017-05-29T08:03:05.670Z,25.77
2017-05-29T08:03:46.460Z,25.83
2017-05-29T08:04:27.263Z,25.79
2017-05-29T08:05:08.086Z,25.85
2017-05-29T08:05:48.890Z,25.9
2017-05-29T08:06:29.726Z,25.91
2017-05-29T08:07:10.459Z,25.76
2017-05-29T08:07:51.284Z,25.76
2017-05-29T08:08:32.015Z,25.64
2017-05-29T08:09:12.799Z,25.57
2017-05-29T08:09:53.554Z,25.46
2017-05-29T08:10:34.306Z,25.47
2017-05-29T08:11:15.077Z,25.46
2017-05-29T08:11:55.868Z,25.52
2017-05-29T08:12:36.662Z,25.52
2017-05-29T08:13:17.401Z,25.45
2017-05-29T08:13:58.183Z,25.52
2017-05-29T08:14:38.972Z,25.52
2017-05-29T08:15:19.684Z,25.54
2017-05-29T08:16:00.491Z,25.64
2017-05-29T08:16:41.254Z,25.6
2017-05-29T08:17:21.964Z,25.5
2017-05-29T08:18:02.685Z,25.55
2017-05-29T08:18:43.505Z,25.55
2017-05-29T08:19:24.374Z,25.57
2017-05-29T08:20:05.179Z,25.5
2017-05-29T08:20:45.922Z,25.51
2017-05-29T08:21:26.792Z,25.51
2017-05-29T08:22:07.503Z,25.46
2017-05-29T08:22:48.267Z,25.5
2017-05-29T08:23:28.999Z,25.55
2017-05-29T08:24:09.777Z,25.54
2017-05-29T08:24:50.461Z,25.67
2017-05-29T08:25:31.250Z,25.6
2017-05-29T08:26:12.092Z,25.64
2017-05-29T08:26:52.840Z,25.65
2017-05-29T08:27:33.578Z,25.62
2017-05-29T08:28:14.479Z,25.77
2017-05-29T08:28:55.264Z,25.77
2017-05-29T08:29:36.029Z,25.76
2017-05-29T08:30:16.772Z,25.8
2017-05-29T08:30:57.523Z,25.83
2017-05-29T08:31:38.311Z,25.83
2017-05-29T08:32:19.077Z,25.87
2017-05-29T08:32:59.964Z,25.72
2017-05-29T08:33:40.767Z,25.91
2017-05-29T08:34:21.565Z,25.85
2017-05-29T08:35:02.243Z,25.87
2017-05-29T08:35:43.077Z,25.88
2017-05-29T08:36:23.904Z,25.92
2017-05-29T08:37:04.620Z,26.02
2017-05-29T08:37:45.434Z,26.05
2017-05-29T08:38:26.167Z,26.06
2017-05-29T08:39:06.933Z,26.07
2017-05-29T08:39:47.779Z,26.05
2017-05-29T08:40:28.584Z,26.06
2017-05-29T08:41:09.335Z,26.05
2017-05-29T08:41:50.149Z,26.02
2017-05-29T08:42:30.915Z,25.87
2017-05-29T08:43:11.677Z,25.87
2017-05-29T08:43:52.434Z,25.85
2017-05-29T08:44:33.163Z,25.87
2017-05-29T08:45:13.919Z,25.92
2017-05-29T08:45:54.776Z,25.9
2017-05-29T08:46:35.490Z,25.91
2017-05-29T08:47:16.205Z,25.76
2017-05-29T08:47:57.010Z,25.85
2017-05-29T08:48:37.812Z,25.79
2017-05-29T08:49:18.612Z,25.76
2017-05-29T08:49:59.343Z,25.73
2017-05-29T08:50:40.090Z,25.72